Time;durP1;ratioP1;P1;durP2;ratioP2;P2;SDS_P1;SDS_P2;PMS_P1;PMS_P2;Temp;Humidity;BMP_temperature;BMP_pressure;BME280_temperature;BME280_humidity;BME280_pressure;Samples;Min_cycle;Max_cycle;Signal;HPM_P1;HPM_P2
2023/12/06 00:02:25;;;;;;;44.35;41.25;;;8.90;99.90;;;;;;5023743;28;20049;-68
2023/12/06 00:04:52;;;;;;;54.00;50.10;;;8.90;99.90;;;;;;5031496;28;20389;-68
2023/12/06 00:07:18;;;;;;;53.75;50.17;;;8.90;99.90;;;;;;5031761;28;20041;-68
2023/12/06 00:09:44;;;;;;;66.40;61.75;;;8.90;99.90;;;;;;5020293;28;20033;-67
2023/12/06 00:12:10;;;;;;;66.43;62.58;;;8.90;99.90;;;;;;5028884;28;20473;-68
2023/12/06 00:14:36;;;;;;;52.70;49.35;;;8.90;99.90;;;;;;5032929;28;20049;-68
2023/12/06 00:17:02;;;;;;;66.43;62.72;;;8.90;99.90;;;;;;5030482;28;20474;-68
2023/12/06 00:19:28;;;;;;;44.63;41.80;;;8.80;99.90;;;;;;5022533;28;20034;-67
2023/12/06 00:21:54;;;;;;;59.40;55.63;;;8.80;99.90;;;;;;5027453;28;20045;-68
2023/12/06 00:24:21;;;;;;;146.75;138.90;;;8.80;99.90;;;;;;5033363;28;20045;-68
2023/12/06 00:26:48;;;;;;;41.72;38.85;;;8.80;99.90;;;;;;5019888;28;20045;-68
2023/12/06 00:29:14;;;;;;;37.30;34.35;;;8.80;99.90;;;;;;5013211;28;20042;-68
2023/12/06 00:31:40;;;;;;;40.50;37.58;;;8.70;99.90;;;;;;5024141;28;20425;-68
2023/12/06 00:34:06;;;;;;;52.33;48.95;;;8.80;99.90;;;;;;5023914;28;20037;-68
2023/12/06 00:36:32;;;;;;;50.22;47.03;;;8.70;99.90;;;;;;5017008;28;20042;-68
2023/12/06 00:38:58;;;;;;;93.38;87.97;;;8.80;99.90;;;;;;5032790;28;20060;-67
2023/12/06 00:41:25;;;;;;;51.60;48.22;;;8.80;99.90;;;;;;5032261;28;20466;-68
2023/12/06 00:43:52;;;;;;;47.20;44.15;;;8.80;99.90;;;;;;5030970;28;20038;-68
2023/12/06 00:46:18;;;;;;;40.17;37.13;;;8.80;99.90;;;;;;5024530;28;20040;-68
2023/12/06 00:48:44;;;;;;;50.40;46.95;;;8.80;99.90;;;;;;5012586;28;20494;-67
2023/12/06 00:51:10;;;;;;;53.92;50.50;;;8.70;99.90;;;;;;5024893;28;20037;-68
2023/12/06 00:53:36;;;;;;;46.90;43.80;;;8.70;99.90;;;;;;5031679;28;20048;-68
2023/12/06 00:56:03;;;;;;;91.30;86.00;;;8.70;99.90;;;;;;5018938;28;20034;-67
2023/12/06 00:58:29;;;;;;;72.65;68.10;;;8.70;99.90;;;;;;5011406;28;20034;-68
2023/12/06 01:00:55;;;;;;;40.25;37.90;;;8.60;99.90;;;;;;5019148;28;20509;-68
2023/12/06 01:03:21;;;;;;;42.65;39.65;;;8.50;99.90;;;;;;5031800;28;20038;-68
2023/12/06 01:05:47;;;;;;;85.22;80.45;;;8.50;99.90;;;;;;5028267;28;20049;-68
2023/12/06 01:08:13;;;;;;;49.40;45.92;;;8.50;99.90;;;;;;5018627;28;20038;-68
2023/12/06 01:10:42;;;;;;;29.60;27.60;;;8.50;99.90;;;;;;5016473;28;20037;-68
2023/12/06 01:13:08;;;;;;;54.90;51.60;;;8.40;99.90;;;;;;5030664;28;20045;-68
2023/12/06 01:15:34;;;;;;;43.53;40.60;;;8.40;99.90;;;;;;5031310;28;20029;-68
2023/12/06 01:18:01;;;;;;;44.75;41.53;;;8.40;99.90;;;;;;5010939;28;20046;-67
2023/12/06 01:20:27;;;;;;;35.20;32.20;;;8.30;99.90;;;;;;5014302;28;20037;-68
2023/12/06 01:22:53;;;;;;;34.63;32.10;;;8.30;99.90;;;;;;5026643;28;20022;-68
2023/12/06 01:25:19;;;;;;;33.65;31.45;;;8.30;99.90;;;;;;5031610;28;20446;-67
2023/12/06 01:27:45;;;;;;;40.65;37.83;;;8.40;99.90;;;;;;5030240;28;20026;-67
2023/12/06 01:30:11;;;;;;;28.13;26.10;;;8.30;99.90;;;;;;5030858;28;20026;-68
2023/12/06 01:32:37;;;;;;;30.63;28.13;;;8.40;99.90;;;;;;5031272;28;20101;-68
2023/12/06 01:35:04;;;;;;;38.25;35.65;;;8.40;99.90;;;;;;5027598;28;20045;-68
2023/12/06 01:37:30;;;;;;;50.00;46.60;;;8.30;99.90;;;;;;5024889;28;20038;-68
2023/12/06 01:39:56;;;;;;;64.78;60.78;;;8.40;99.90;;;;;;5012126;28;20386;-67
2023/12/06 01:42:22;;;;;;;68.82;64.45;;;8.40;99.90;;;;;;5013084;28;20459;-68
2023/12/06 01:44:48;;;;;;;79.13;74.53;;;8.40;99.90;;;;;;5013280;28;20049;-68
2023/12/06 01:47:17;;;;;;;54.65;51.30;;;8.40;99.90;;;;;;5027396;28;20471;-68
2023/12/06 01:49:43;;;;;;;101.85;96.15;;;8.20;99.90;;;;;;4996989;28;20038;-68
2023/12/06 01:52:09;;;;;;;120.10;113.57;;;8.00;99.90;;;;;;5027835;28;20034;-68
2023/12/06 01:54:35;;;;;;;140.38;133.00;;;8.10;99.90;;;;;;5029803;28;20076;-68
2023/12/06 01:57:01;;;;;;;149.65;141.43;;;8.20;99.90;;;;;;5030874;28;20038;-68
2023/12/06 01:59:27;;;;;;;157.30;148.20;;;8.30;99.90;;;;;;5027389;28;20037;-67
2023/12/06 02:01:54;;;;;;;144.63;136.73;;;8.20;99.90;;;;;;5027408;28;20033;-68
2023/12/06 02:04:20;;;;;;;130.45;123.43;;;8.20;99.90;;;;;;5031558;28;20037;-67
2023/12/06 02:06:46;;;;;;;113.88;107.25;;;8.30;99.90;;;;;;5022973;28;20030;-68
2023/12/06 02:09:12;;;;;;;96.72;91.38;;;8.30;99.90;;;;;;5012596;28;20394;-67
2023/12/06 02:11:38;;;;;;;92.85;87.57;;;8.40;99.90;;;;;;5022371;28;20033;-67
2023/12/06 02:14:04;;;;;;;85.85;80.78;;;8.30;99.90;;;;;;5031685;28;20515;-67
2023/12/06 02:16:30;;;;;;;77.65;73.38;;;8.20;99.90;;;;;;5028929;28;20040;-68
2023/12/06 02:18:57;;;;;;;81.38;76.10;;;8.10;99.90;;;;;;5020416;28;20030;-67
2023/12/06 02:21:23;;;;;;;91.85;86.28;;;8.20;99.90;;;;;;5020540;28;20029;-67
2023/12/06 02:23:49;;;;;;;81.30;76.82;;;8.10;99.90;;;;;;5015488;28;20025;-68
2023/12/06 02:26:15;;;;;;;76.70;72.32;;;8.10;99.90;;;;;;5029647;28;20056;-67
2023/12/06 02:28:41;;;;;;;77.25;72.25;;;7.90;99.90;;;;;;5031656;28;20040;-68
2023/12/06 02:31:07;;;;;;;80.05;75.30;;;7.90;99.90;;;;;;5029741;28;20045;-67
2023/12/06 02:33:33;;;;;;;83.78;78.78;;;8.00;99.90;;;;;;5030480;28;20393;-67
2023/12/06 02:36:01;;;;;;;82.13;77.32;;;8.10;99.90;;;;;;5034115;28;20037;-67
2023/12/06 02:38:27;;;;;;;78.22;73.57;;;8.00;99.90;;;;;;5032989;28;20021;-68
2023/12/06 02:40:53;;;;;;;81.97;77.03;;;8.00;99.90;;;;;;5032635;28;20026;-68
2023/12/06 02:43:19;;;;;;;84.75;79.55;;;8.00;99.90;;;;;;5016890;28;20038;-68
2023/12/06 02:45:45;;;;;;;81.93;77.22;;;7.90;99.90;;;;;;5028728;28;20044;-68
2023/12/06 02:48:11;;;;;;;90.13;84.65;;;7.90;99.90;;;;;;5016636;28;20509;-68
2023/12/06 02:50:37;;;;;;;96.80;91.30;;;7.90;99.90;;;;;;5034453;28;20041;-68
2023/12/06 02:53:03;;;;;;;86.45;81.35;;;7.80;99.90;;;;;;5034405;28;20025;-67
2023/12/06 02:55:30;;;;;;;84.10;78.55;;;7.70;99.90;;;;;;5022719;28;20049;-68
2023/12/06 02:57:56;;;;;;;88.32;83.28;;;7.70;99.90;;;;;;5034350;28;20049;-67
2023/12/06 03:00:22;;;;;;;103.43;97.10;;;7.70;99.90;;;;;;5023703;28;20470;-68
2023/12/06 03:02:48;;;;;;;108.90;102.68;;;7.70;99.90;;;;;;5034007;28;20038;-68
2023/12/06 03:05:14;;;;;;;101.05;95.55;;;7.70;99.90;;;;;;5032622;28;20048;-68
2023/12/06 03:07:40;;;;;;;101.22;95.28;;;7.70;99.90;;;;;;5034279;28;20025;-67
2023/12/06 03:10:07;;;;;;;97.70;92.05;;;7.60;99.90;;;;;;5022593;28;20026;-68
2023/12/06 03:12:33;;;;;;;97.25;91.78;;;7.50;99.90;;;;;;5033955;28;20033;-67
2023/12/06 03:14:59;;;;;;;108.95;103.03;;;7.40;99.90;;;;;;5023361;28;20041;-67
2023/12/06 03:17:25;;;;;;;104.35;98.07;;;7.40;99.90;;;;;;5033044;28;20037;-68
2023/12/06 03:19:51;;;;;;;112.75;106.18;;;7.40;99.90;;;;;;5029691;28;20026;-68
2023/12/06 03:22:17;;;;;;;125.97;119.03;;;7.40;99.90;;;;;;5019619;28;20041;-67
2023/12/06 03:24:43;;;;;;;101.05;94.97;;;7.40;99.90;;;;;;5016004;28;20053;-68
2023/12/06 03:27:09;;;;;;;125.97;118.63;;;7.30;99.90;;;;;;5033560;28;20045;-67
2023/12/06 03:29:35;;;;;;;124.47;117.25;;;7.20;99.90;;;;;;5033084;28;20045;-69
2023/12/06 03:32:01;;;;;;;131.63;124.63;;;7.20;99.90;;;;;;5033364;28;20038;-69
2023/12/06 03:34:27;;;;;;;142.18;134.10;;;7.20;99.90;;;;;;5033083;28;20037;-69
2023/12/06 03:36:53;;;;;;;135.80;128.33;;;7.10;99.90;;;;;;5026079;28;20036;-70
2023/12/06 03:39:20;;;;;;;138.60;131.07;;;7.10;99.90;;;;;;5013978;28;20034;-70
2023/12/06 03:41:46;;;;;;;142.75;135.05;;;7.10;99.90;;;;;;5015577;28;20045;-69
2023/12/06 03:44:12;;;;;;;151.60;143.07;;;7.00;99.90;;;;;;5016802;28;20041;-70
2023/12/06 03:46:38;;;;;;;154.20;145.32;;;7.00;99.90;;;;;;5031237;28;20053;-69
2023/12/06 03:49:04;;;;;;;124.93;118.35;;;6.90;99.90;;;;;;5020221;28;20034;-70
2023/12/06 03:51:30;;;;;;;157.77;148.32;;;6.70;99.90;;;;;;5024616;28;20045;-70
2023/12/06 03:53:57;;;;;;;165.10;156.10;;;6.70;99.90;;;;;;5033023;28;20052;-70
2023/12/06 03:56:23;;;;;;;156.40;148.18;;;6.70;99.90;;;;;;5032604;28;20037;-70
2023/12/06 03:58:49;;;;;;;158.87;149.90;;;6.70;99.90;;;;;;5033356;28;20048;-70
2023/12/06 04:01:15;;;;;;;153.23;144.63;;;6.70;99.90;;;;;;5032905;28;20045;-70
2023/12/06 04:03:41;;;;;;;116.17;109.80;;;6.70;99.90;;;;;;5033758;28;20033;-69
2023/12/06 04:06:07;;;;;;;149.77;141.63;;;6.70;99.90;;;;;;5023520;28;20409;-70
2023/12/06 04:08:33;;;;;;;150.07;141.73;;;6.70;99.90;;;;;;5032927;28;20037;-69
2023/12/06 04:10:59;;;;;;;153.47;144.97;;;6.70;99.90;;;;;;5028545;28;20037;-70
2023/12/06 04:13:25;;;;;;;157.13;148.20;;;6.60;99.90;;;;;;5032804;28;20389;-70
2023/12/06 04:15:52;;;;;;;136.97;129.30;;;6.60;99.90;;;;;;5023580;28;20057;-70
2023/12/06 04:18:18;;;;;;;114.33;108.13;;;6.60;99.90;;;;;;5032737;28;20041;-69
2023/12/06 04:20:44;;;;;;;192.43;182.23;;;6.50;99.90;;;;;;5031729;28;20033;-70
2023/12/06 04:23:10;;;;;;;173.60;164.07;;;6.50;99.90;;;;;;5020476;28;20064;-69
2023/12/06 04:25:37;;;;;;;178.87;169.23;;;6.50;99.90;;;;;;5027469;28;20037;-69
2023/12/06 04:28:03;;;;;;;174.93;165.70;;;6.50;99.90;;;;;;5026092;28;20040;-69
2023/12/06 04:30:29;;;;;;;129.50;122.17;;;6.50;99.90;;;;;;5015342;28;20049;-70
2023/12/06 04:32:55;;;;;;;124.43;117.27;;;6.40;99.90;;;;;;5032561;28;20057;-69
2023/12/06 04:35:22;;;;;;;123.50;116.37;;;6.50;99.90;;;;;;5023475;28;20045;-70
2023/12/06 04:37:48;;;;;;;133.80;126.43;;;6.40;99.90;;;;;;5031480;28;20036;-70
2023/12/06 04:40:14;;;;;;;128.60;121.63;;;6.40;99.90;;;;;;5031606;28;20393;-70
2023/12/06 04:42:40;;;;;;;156.83;147.93;;;6.40;99.90;;;;;;5021309;28;20040;-70
2023/12/06 04:45:06;;;;;;;158.40;149.30;;;6.40;99.90;;;;;;5031740;28;20060;-69
2023/12/06 04:47:32;;;;;;;171.40;161.53;;;6.40;99.90;;;;;;5016340;28;20042;-69
2023/12/06 04:49:58;;;;;;;147.73;139.20;;;6.30;99.90;;;;;;5011951;28;20037;-69
2023/12/06 04:52:24;;;;;;;135.03;127.07;;;6.30;99.90;;;;;;5023946;28;20029;-69
2023/12/06 04:54:51;;;;;;;117.80;111.03;;;6.30;99.90;;;;;;5031680;28;20053;-69
2023/12/06 04:57:17;;;;;;;125.83;118.70;;;6.20;99.90;;;;;;5027630;28;20520;-70
2023/12/06 04:59:43;;;;;;;93.23;87.77;;;6.00;99.90;;;;;;5013378;28;20034;-70
2023/12/06 05:02:09;;;;;;;111.10;104.70;;;6.10;99.90;;;;;;5019965;28;20030;-70
2023/12/06 05:04:36;;;;;;;115.37;108.47;;;6.10;99.90;;;;;;5012634;28;20032;-69
2023/12/06 05:07:02;;;;;;;117.17;110.73;;;6.00;99.90;;;;;;5022629;28;20045;-69
2023/12/06 05:09:28;;;;;;;99.83;93.90;;;5.90;99.90;;;;;;5018777;28;20029;-70
2023/12/06 05:11:54;;;;;;;102.53;96.33;;;5.90;99.90;;;;;;5032047;28;20044;-69
2023/12/06 05:14:20;;;;;;;153.83;145.20;;;6.00;99.90;;;;;;5030781;28;20042;-70
2023/12/06 05:16:46;;;;;;;141.50;133.07;;;6.00;99.90;;;;;;5030418;28;20041;-70
2023/12/06 05:19:12;;;;;;;125.70;118.67;;;6.00;99.90;;;;;;5031612;28;20037;-69
2023/12/06 05:21:38;;;;;;;154.73;146.10;;;5.90;99.90;;;;;;5031744;28;20489;-70
2023/12/06 05:24:04;;;;;;;153.07;144.37;;;5.90;99.90;;;;;;5026097;28;20037;-70
2023/12/06 05:26:30;;;;;;;131.93;124.30;;;5.90;99.90;;;;;;5029546;28;20060;-69
2023/12/06 05:28:58;;;;;;;159.07;150.27;;;5.70;99.90;;;;;;5031353;28;20033;-70
2023/12/06 05:31:24;;;;;;;129.53;122.17;;;5.60;99.90;;;;;;5030893;28;20037;-70
2023/12/06 05:33:50;;;;;;;83.60;78.57;;;5.70;99.90;;;;;;5031626;28;20046;-70
2023/12/06 05:36:16;;;;;;;79.87;74.53;;;5.70;99.90;;;;;;5031656;28;20474;-69
2023/12/06 05:38:42;;;;;;;99.60;93.93;;;5.50;99.90;;;;;;5015104;28;20034;-69
2023/12/06 05:41:08;;;;;;;102.07;95.90;;;5.60;99.90;;;;;;5019857;28;20037;-70
2023/12/06 05:43:34;;;;;;;105.10;98.57;;;5.60;99.90;;;;;;5031793;28;20030;-69
2023/12/06 05:46:00;;;;;;;115.00;108.20;;;5.70;99.90;;;;;;5031107;28;20045;-70
2023/12/06 05:48:26;;;;;;;131.37;124.07;;;5.70;99.90;;;;;;5018082;28;20034;-70
2023/12/06 05:50:53;;;;;;;114.77;107.83;;;5.60;99.90;;;;;;5017630;28;20041;-70
2023/12/06 05:53:19;;;;;;;101.17;95.17;;;5.70;99.90;;;;;;5031572;28;20025;-70
2023/12/06 05:55:45;;;;;;;118.33;111.90;;;5.60;99.90;;;;;;5031335;28;20148;-70
2023/12/06 05:58:11;;;;;;;135.00;127.40;;;5.60;99.90;;;;;;5031116;28;20044;-70
2023/12/06 06:00:38;;;;;;;130.53;123.00;;;5.60;99.90;;;;;;5026841;28;20458;-70
2023/12/06 06:03:04;;;;;;;108.77;102.33;;;5.50;99.90;;;;;;5012078;28;20615;-69
2023/12/06 06:05:30;;;;;;;92.80;87.27;;;5.50;99.90;;;;;;5011747;28;20487;-70
2023/12/06 06:07:57;;;;;;;76.27;71.77;;;5.50;99.90;;;;;;5020829;28;20025;-70
2023/12/06 06:10:23;;;;;;;63.60;59.27;;;5.40;99.90;;;;;;5034305;28;20045;-70
2023/12/06 06:12:49;;;;;;;77.17;72.73;;;5.30;99.90;;;;;;5035495;28;20058;-69
2023/12/06 06:15:15;;;;;;;88.07;82.97;;;5.30;99.90;;;;;;5034672;28;20424;-70
2023/12/06 06:17:43;;;;;;;86.83;81.93;;;5.30;99.90;;;;;;5035255;28;20041;-70
2023/12/06 06:20:10;;;;;;;87.07;81.83;;;5.30;99.90;;;;;;5035084;28;20037;-70
2023/12/06 06:22:36;;;;;;;87.27;81.73;;;5.10;99.90;;;;;;5014580;28;20049;-70
2023/12/06 06:25:02;;;;;;;87.57;82.23;;;5.00;99.90;;;;;;5015521;28;20041;-70
2023/12/06 06:27:28;;;;;;;88.90;83.70;;;4.60;99.90;;;;;;5029834;28;20030;-68
2023/12/06 06:29:54;;;;;;;87.07;81.83;;;4.40;99.90;;;;;;5015424;28;20030;-68
2023/12/06 06:32:21;;;;;;;125.70;118.57;;;4.30;99.90;;;;;;5032333;28;20466;-69
2023/12/06 06:34:47;;;;;;;115.80;109.07;;;4.40;99.90;;;;;;5033707;28;20045;-70
2023/12/06 06:37:13;;;;;;;72.80;68.37;;;4.60;99.90;;;;;;5033167;28;20034;-67
2023/12/06 06:39:39;;;;;;;77.77;72.20;;;4.70;99.90;;;;;;5034246;28;20057;-68
2023/12/06 06:42:06;;;;;;;85.73;79.23;;;4.60;99.90;;;;;;5034580;28;20666;-67
2023/12/06 06:44:32;;;;;;;81.43;75.27;;;4.40;99.90;;;;;;5034781;28;20041;-67
2023/12/06 06:47:00;;;;;;;69.30;56.67;;;4.40;99.90;;;;;;5034091;28;20045;-67
2023/12/06 06:49:26;;;;;;;68.77;61.40;;;4.10;99.90;;;;;;5032786;28;20056;-67
2023/12/06 06:51:52;;;;;;;62.13;56.43;;;4.00;99.90;;;;;;5031931;28;20038;-67
2023/12/06 06:54:18;;;;;;;66.10;61.47;;;4.00;99.90;;;;;;5015211;28;20107;-67
2023/12/06 06:56:44;;;;;;;56.67;50.57;;;4.00;99.90;;;;;;5027498;28;20486;-68
2023/12/06 06:59:11;;;;;;;52.03;43.60;;;3.90;99.90;;;;;;5019564;28;20037;-68
2023/12/06 07:01:37;;;;;;;85.00;45.43;;;3.80;99.90;;;;;;5014878;28;20049;-67
2023/12/06 07:04:04;;;;;;;106.97;43.83;;;3.80;99.90;;;;;;5014767;28;20044;-67
2023/12/06 07:06:30;;;;;;;150.77;55.43;;;3.90;99.90;;;;;;5014145;28;20037;-67
2023/12/06 07:08:56;;;;;;;129.83;48.83;;;4.10;99.90;;;;;;5023205;28;20496;-69
2023/12/06 07:11:22;;;;;;;48.80;44.00;;;4.30;99.90;;;;;;5033486;28;20038;-67
2023/12/06 07:13:49;;;;;;;41.33;37.07;;;4.40;99.90;;;;;;5034270;28;20397;-68
2023/12/06 07:16:16;;;;;;;34.53;30.27;;;4.20;99.90;;;;;;5032007;28;20045;-67
2023/12/06 07:18:44;;;;;;;115.47;37.03;;;3.90;99.90;;;;;;5025188;28;20048;-68
2023/12/06 07:21:11;;;;;;;44.63;33.83;;;3.80;99.90;;;;;;5028700;28;20049;-67
2023/12/06 07:23:39;;;;;;;45.83;42.07;;;4.00;99.90;;;;;;5034126;28;20029;-67
2023/12/06 07:26:06;;;;;;;40.17;36.50;;;3.80;99.90;;;;;;5023384;28;20410;-69
2023/12/06 07:28:32;;;;;;;37.63;34.23;;;3.80;99.90;;;;;;5033838;28;20040;-67
2023/12/06 07:30:59;;;;;;;57.50;37.63;;;3.70;99.90;;;;;;5029375;28;20413;-69
2023/12/06 07:33:26;;;;;;;39.93;31.90;;;3.60;99.90;;;;;;5014998;28;20042;-70
2023/12/06 07:35:53;;;;;;;35.97;32.40;;;3.70;99.90;;;;;;5028916;28;20045;-68
2023/12/06 07:38:20;;;;;;;49.70;33.67;;;3.50;99.90;;;;;;5033111;28;20504;-68
2023/12/06 07:40:46;;;;;;;50.57;45.03;;;3.40;99.90;;;;;;5032540;28;20041;-68
2023/12/06 07:43:12;;;;;;;107.77;31.27;;;3.30;99.90;;;;;;5033321;28;20029;-68
2023/12/06 07:45:38;;;;;;;56.10;26.93;;;3.10;99.90;;;;;;5033215;28;20041;-68
2023/12/06 07:48:04;;;;;;;81.53;28.17;;;3.10;99.90;;;;;;5033522;28;20470;-68
2023/12/06 07:50:31;;;;;;;82.13;30.23;;;3.10;99.90;;;;;;5015513;28;20045;-68
2023/12/06 07:52:57;;;;;;;75.70;28.70;;;3.20;99.90;;;;;;5032666;28;20025;-68
2023/12/06 07:55:23;;;;;;;59.07;28.77;;;3.40;99.90;;;;;;5033642;28;20038;-68
2023/12/06 07:57:49;;;;;;;53.63;26.63;;;3.50;99.90;;;;;;5032501;28;20462;-68
2023/12/06 08:00:16;;;;;;;75.13;27.83;;;3.60;99.90;;;;;;5030624;28;20022;-69
2023/12/06 08:02:42;;;;;;;51.23;25.17;;;3.60;99.90;;;;;;5033025;28;20048;-69
2023/12/06 08:05:10;;;;;;;126.57;27.17;;;3.50;99.90;;;;;;5032947;28;20021;-68
2023/12/06 08:07:37;;;;;;;96.47;26.53;;;3.40;99.90;;;;;;5032999;28;20406;-69
2023/12/06 08:10:12;;;;;;;100.27;26.40;;;3.30;99.90;;;;;;5033416;28;20041;-68
2023/12/06 08:12:38;;;;;;;41.57;28.47;;;3.20;99.90;;;;;;5032293;28;20049;-69
2023/12/06 08:15:05;;;;;;;29.00;25.73;;;3.20;99.90;;;;;;5032742;28;20044;-68
2023/12/06 08:17:31;;;;;;;71.30;28.87;;;3.30;99.90;;;;;;5022032;28;20364;-68
2023/12/06 08:19:57;;;;;;;51.17;26.63;;;3.40;99.90;;;;;;5023890;28;20025;-68
2023/12/06 08:22:23;;;;;;;37.27;19.17;;;3.30;99.90;;;;;;5031175;28;20060;-68
2023/12/06 08:24:56;;;;;;;72.90;25.10;;;3.10;99.90;;;;;;5033090;28;20049;-68
2023/12/06 08:27:27;;;;;;;29.90;18.80;;;3.00;99.90;;;;;;5032358;28;20061;-68
2023/12/06 08:30:00;;;;;;;57.23;19.77;;;3.10;99.90;;;;;;5031801;28;20033;-68
2023/12/06 08:32:27;;;;;;;74.53;22.67;;;3.10;99.90;;;;;;5024796;28;20048;-68
2023/12/06 08:34:53;;;;;;;36.63;21.10;;;3.20;99.90;;;;;;5029628;28;20049;-69
2023/12/06 08:37:19;;;;;;;49.93;37.17;;;3.30;99.90;;;;;;5029038;28;20389;-68
2023/12/06 08:39:45;;;;;;;40.53;37.43;;;3.00;99.90;;;;;;5027075;28;20045;-68
2023/12/06 08:42:14;;;;;;;43.07;38.87;;;2.90;99.90;;;;;;5025515;28;20041;-69
2023/12/06 08:44:41;;;;;;;94.83;25.63;;;2.90;99.90;;;;;;5032707;28;20478;-69
2023/12/06 08:47:08;;;;;;;35.27;20.27;;;3.20;99.90;;;;;;5031263;28;20521;-70
2023/12/06 08:49:37;;;;;;;27.90;20.43;;;3.30;99.90;;;;;;5012944;28;20046;-70
2023/12/06 08:52:04;;;;;;;23.43;18.97;;;3.40;99.90;;;;;;5027793;28;20036;-70
2023/12/06 08:54:31;;;;;;;27.20;19.83;;;3.30;99.90;;;;;;5032478;28;20493;-68
2023/12/06 08:56:58;;;;;;;90.83;21.60;;;3.30;99.90;;;;;;5031149;28;20485;-70
2023/12/06 08:59:24;;;;;;;59.33;30.77;;;3.40;99.90;;;;;;5030908;28;20045;-69
2023/12/06 09:01:50;;;;;;;49.10;31.53;;;3.60;99.90;;;;;;5015409;28;20038;-70
2023/12/06 09:04:16;;;;;;;42.30;33.97;;;3.80;99.90;;;;;;5025379;28;20037;-69
2023/12/06 09:06:42;;;;;;;62.77;38.00;;;3.60;99.90;;;;;;5023686;28;20036;-69
2023/12/06 09:09:08;;;;;;;124.00;39.30;;;3.40;99.90;;;;;;5032220;28;20389;-65
2023/12/06 09:11:34;;;;;;;71.27;44.17;;;3.90;99.90;;;;;;5026625;28;20049;-69
2023/12/06 09:14:00;;;;;;;86.30;48.93;;;4.10;99.90;;;;;;5017618;28;20033;-68
2023/12/06 09:16:26;;;;;;;56.90;50.60;;;3.90;99.90;;;;;;5020638;28;20038;-69
2023/12/06 09:18:52;;;;;;;129.60;52.43;;;3.90;99.90;;;;;;5028137;28;20029;-69
2023/12/06 09:21:18;;;;;;;121.50;48.33;;;3.90;99.90;;;;;;5028930;28;20033;-69
2023/12/06 09:23:44;;;;;;;273.03;49.63;;;3.70;99.90;;;;;;5029090;28;20032;-68
2023/12/06 09:26:10;;;;;;;80.90;27.57;;;3.80;99.90;;;;;;5030580;28;20035;-68
2023/12/06 09:28:38;;;;;;;219.20;41.47;;;3.80;99.90;;;;;;5032006;28;20026;-68
2023/12/06 09:31:05;;;;;;;73.63;30.67;;;3.70;99.90;;;;;;5023331;28;20046;-69
2023/12/06 09:33:31;;;;;;;75.87;27.60;;;3.60;99.90;;;;;;5011095;28;20042;-69
2023/12/06 09:35:57;;;;;;;61.53;27.63;;;3.50;99.90;;;;;;5029506;28;20056;-68
2023/12/06 09:38:23;;;;;;;289.67;64.17;;;3.30;99.90;;;;;;5031126;28;20033;-68
2023/12/06 09:40:49;;;;;;;56.10;44.07;;;3.50;99.90;;;;;;5031034;28;20026;-69
2023/12/06 09:43:17;;;;;;;133.67;47.87;;;3.70;99.90;;;;;;5022171;28;20026;-69
2023/12/06 09:45:43;;;;;;;143.13;49.50;;;3.90;99.90;;;;;;5032234;28;20060;-69
2023/12/06 09:48:09;;;;;;;175.73;39.93;;;3.90;99.90;;;;;;5026154;28;20063;-69
2023/12/06 09:50:36;;;;;;;82.90;42.27;;;3.90;99.90;;;;;;5033774;28;20379;-69
2023/12/06 09:53:02;;;;;;;60.57;33.90;;;3.90;99.90;;;;;;5035612;28;20043;-68
2023/12/06 09:55:29;;;;;;;89.63;43.93;;;3.90;99.90;;;;;;5032112;28;20057;-69
2023/12/06 09:57:56;;;;;;;104.00;35.00;;;4.00;99.90;;;;;;5033234;28;20795;-69
2023/12/06 10:00:22;;;;;;;58.07;49.00;;;3.90;99.90;;;;;;5031960;28;20056;-69
2023/12/06 10:02:52;;;;;;;92.07;46.43;;;3.70;99.90;;;;;;5028654;28;20033;-69
2023/12/06 10:05:18;;;;;;;61.17;41.60;;;3.50;99.90;;;;;;5033440;28;20406;-68
2023/12/06 10:07:44;;;;;;;38.70;28.20;;;3.40;99.90;;;;;;5035118;28;20034;-68
2023/12/06 10:10:18;;;;;;;43.73;22.90;;;3.40;99.90;;;;;;5035472;28;20034;-68
2023/12/06 10:12:48;;;;;;;77.63;49.00;;;3.40;99.90;;;;;;5015936;28;20034;-69
2023/12/06 10:15:15;;;;;;;88.10;81.07;;;3.40;99.90;;;;;;5024640;28;20048;-68
2023/12/06 10:17:42;;;;;;;68.50;62.10;;;3.50;99.90;;;;;;5035256;28;20041;-68
2023/12/06 10:20:08;;;;;;;125.53;44.23;;;3.70;99.90;;;;;;5015895;28;20045;-69
2023/12/06 10:22:35;;;;;;;60.73;54.20;;;3.70;99.90;;;;;;5026311;28;20045;-68
2023/12/06 10:25:02;;;;;;;90.37;42.30;;;3.70;99.90;;;;;;5034595;28;20497;-68
2023/12/06 10:27:30;;;;;;;99.33;39.40;;;3.80;99.90;;;;;;5035055;28;20121;-69
2023/12/06 10:29:56;;;;;;;131.37;73.33;;;4.00;99.90;;;;;;5034901;28;20040;-68
2023/12/06 10:32:25;;;;;;;87.20;43.63;;;4.10;99.90;;;;;;5016702;28;20058;-68
2023/12/06 10:34:51;;;;;;;71.83;34.90;;;4.20;99.90;;;;;;5029147;28;20032;-69
2023/12/06 10:37:19;;;;;;;51.17;45.70;;;4.00;99.90;;;;;;5033628;28;20052;-68
2023/12/06 10:39:49;;;;;;;47.43;43.17;;;3.90;99.90;;;;;;5035093;28;20025;-68
2023/12/06 10:42:19;;;;;;;144.73;50.63;;;3.90;99.90;;;;;;5034788;28;20034;-68
2023/12/06 10:44:45;;;;;;;114.83;36.43;;;3.90;99.90;;;;;;5034318;28;20060;-68
2023/12/06 10:47:12;;;;;;;135.97;66.60;;;4.10;99.90;;;;;;5031776;28;21244;-68
2023/12/06 10:49:38;;;;;;;107.20;55.53;;;4.20;99.90;;;;;;5033684;28;20060;-68
2023/12/06 10:52:04;;;;;;;48.80;41.93;;;4.40;99.90;;;;;;5029680;28;20398;-68
2023/12/06 10:54:31;;;;;;;44.53;40.50;;;4.40;99.90;;;;;;5019721;28;20032;-68
2023/12/06 10:56:57;;;;;;;127.37;76.40;;;4.20;99.90;;;;;;5032433;28;20071;-68
2023/12/06 10:59:26;;;;;;;51.50;44.83;;;4.20;99.90;;;;;;5033176;28;20025;-68
2023/12/06 11:01:54;;;;;;;48.90;44.43;;;4.30;99.90;;;;;;5025374;28;20029;-68
2023/12/06 11:04:24;;;;;;;46.53;42.03;;;4.40;99.90;;;;;;5021512;28;20045;-68
2023/12/06 11:07:29;;;;;;;60.47;55.23;;;4.30;99.90;;;;;;5015443;28;20045;-68
2023/12/06 11:10:13;;;;;;;60.63;41.73;;;4.50;99.90;;;;;;4999827;28;20487;-68
2023/12/06 11:12:42;;;;;;;181.43;170.73;;;4.70;99.90;;;;;;5032560;28;20030;-68
2023/12/06 11:15:11;;;;;;;110.17;103.33;;;4.80;99.90;;;;;;5032067;28;20041;-68
2023/12/06 11:18:02;;;;;;;120.87;113.90;;;4.70;99.90;;;;;;5032459;28;20038;-70
2023/12/06 11:20:28;;;;;;;106.38;99.63;;;4.50;99.90;;;;;;5033324;28;20033;-68
2023/12/06 11:22:56;;;;;;;83.47;76.93;;;4.50;99.90;;;;;;5033921;28;20041;-68
2023/12/06 11:25:22;;;;;;;102.87;95.60;;;4.70;99.90;;;;;;5031770;28;20052;-68
2023/12/06 11:27:49;;;;;;;78.83;71.47;;;4.60;99.90;;;;;;5026005;28;20049;-69
2023/12/06 11:30:17;;;;;;;71.80;66.50;;;4.60;99.90;;;;;;5024420;28;20378;-68
2023/12/06 11:32:44;;;;;;;114.87;104.70;;;4.90;99.90;;;;;;5026653;28;20049;-68
2023/12/06 11:35:10;;;;;;;95.93;89.60;;;5.10;99.90;;;;;;5027915;28;20042;-68
2023/12/06 11:37:37;;;;;;;98.07;91.17;;;5.10;99.90;;;;;;5032264;28;20044;-68
2023/12/06 11:40:12;;;;;;;80.77;74.33;;;5.00;99.90;;;;;;5031791;28;20033;-68
2023/12/06 11:42:39;;;;;;;87.80;82.00;;;4.90;99.90;;;;;;5030785;28;20072;-68
2023/12/06 11:45:06;;;;;;;88.27;80.83;;;4.80;99.90;;;;;;5031856;28;20053;-68
2023/12/06 11:47:35;;;;;;;86.10;77.57;;;4.70;99.90;;;;;;5028348;28;20086;-68
2023/12/06 11:50:03;;;;;;;82.60;76.87;;;4.70;99.90;;;;;;5021435;28;20393;-68
2023/12/06 11:52:29;;;;;;;107.83;100.37;;;4.70;99.90;;;;;;5032895;28;20041;-68
2023/12/06 11:54:55;;;;;;;91.60;83.77;;;4.70;99.90;;;;;;5031517;28;20052;-68
2023/12/06 11:57:21;;;;;;;63.00;57.67;;;4.70;99.90;;;;;;5029128;28;20049;-68
2023/12/06 11:59:49;;;;;;;99.27;55.60;;;4.90;99.90;;;;;;5029826;28;20048;-68
2023/12/06 12:02:15;;;;;;;45.40;41.20;;;4.80;99.90;;;;;;5015122;28;20038;-68
2023/12/06 12:04:41;;;;;;;69.53;64.33;;;4.80;99.90;;;;;;5007333;28;20037;-68
2023/12/06 12:07:09;;;;;;;78.70;71.23;;;4.90;99.90;;;;;;5030000;28;20128;-68
2023/12/06 12:09:35;;;;;;;89.50;83.23;;;4.90;99.90;;;;;;5032714;28;20041;-68
2023/12/06 12:12:01;;;;;;;95.13;86.23;;;4.90;99.90;;;;;;5030050;28;20050;-68
2023/12/06 12:14:34;;;;;;;172.57;160.87;;;5.00;99.90;;;;;;5031238;28;20033;-68
2023/12/06 12:17:01;;;;;;;75.90;69.47;;;5.10;99.90;;;;;;5031401;28;20052;-68
2023/12/06 12:19:27;;;;;;;114.07;106.17;;;5.10;99.90;;;;;;5032027;28;20042;-68
2023/12/06 12:22:01;;;;;;;71.17;64.87;;;5.10;99.90;;;;;;5030707;28;20128;-68
2023/12/06 12:24:27;;;;;;;71.17;61.10;;;5.20;99.90;;;;;;5031189;28;20048;-68
2023/12/06 12:26:53;;;;;;;114.53;105.93;;;5.10;99.90;;;;;;5031675;28;20442;-68
2023/12/06 12:29:19;;;;;;;110.60;102.47;;;5.10;99.90;;;;;;5017502;28;20038;-68